createdAt,value
2023-01-07T00:02:04.276Z,5.37
2023-01-07T00:07:11.730Z,5.53
2023-01-07T00:12:17.981Z,5.39
2023-01-07T00:17:22.489Z,5.30
2023-01-07T00:22:27.041Z,5.39
2023-01-07T00:27:33.352Z,5.56
2023-01-07T00:32:52.370Z,5.61
2023-01-07T00:37:57.114Z,5.74
2023-01-07T00:43:05.207Z,5.61
2023-01-07T00:48:11.215Z,6.16
2023-01-07T00:53:15.923Z,6.65
2023-01-07T00:58:24.414Z,7.05
2023-01-07T01:03:31.780Z,6.04
2023-01-07T01:08:36.730Z,5.78
2023-01-07T01:13:43.520Z,6.27
2023-01-07T01:18:48.731Z,5.91
2023-01-07T01:23:53.289Z,6.64
2023-01-07T01:28:59.301Z,5.95
2023-01-07T01:34:04.243Z,6.74
2023-01-07T01:39:09.734Z,6.35
2023-01-07T01:44:47.439Z,7.20
2023-01-07T01:50:03.521Z,6.43
2023-01-07T01:55:13.352Z,6.39
2023-01-07T02:00:19.756Z,6.70
2023-01-07T02:05:35.091Z,6.69
2023-01-07T02:10:40.847Z,6.61
2023-01-07T02:15:57.565Z,6.54
2023-01-07T02:21:12.891Z,6.41
2023-01-07T02:26:57.615Z,6.41
2023-01-07T02:32:15.832Z,6.65
2023-01-07T02:37:26.981Z,6.52
2023-01-07T02:42:39.178Z,6.54
2023-01-07T02:47:51.125Z,6.46
2023-01-07T02:52:56.821Z,6.56
2023-01-07T02:58:30.173Z,6.63
2023-01-07T03:03:52.817Z,6.53
2023-01-07T03:09:06.077Z,6.25
2023-01-07T03:14:17.908Z,6.55
2023-01-07T03:19:31.680Z,6.82
2023-01-07T03:24:37.438Z,6.68
2023-01-07T03:29:41.930Z,6.00
2023-01-07T03:34:48.805Z,6.34
2023-01-07T03:39:54.428Z,6.39
2023-01-07T03:45:00.224Z,5.92
2023-01-07T03:50:10.320Z,6.10
2023-01-07T03:55:18.817Z,6.25
2023-01-07T04:00:25.549Z,6.01
2023-01-07T04:05:50.436Z,5.99
2023-01-07T04:10:56.083Z,5.71
2023-01-07T04:16:02.173Z,5.39
2023-01-07T04:21:08.494Z,5.67
2023-01-07T04:26:13.042Z,5.61
2023-01-07T04:31:18.656Z,5.88
2023-01-07T04:36:24.704Z,6.24
2023-01-07T04:41:29.390Z,6.77
2023-01-07T04:46:34.851Z,6.67
2023-01-07T04:51:41.087Z,6.94
2023-01-07T04:56:45.857Z,6.12
2023-01-07T05:01:50.953Z,5.96
2023-01-07T05:06:56.995Z,6.04
2023-01-07T05:12:03.446Z,6.08
2023-01-07T05:17:08.551Z,6.25
2023-01-07T05:22:16.705Z,6.25
2023-01-07T05:27:21.500Z,6.68
2023-01-07T05:32:26.996Z,6.31
2023-01-07T05:37:33.164Z,6.66
2023-01-07T05:42:37.741Z,6.67
2023-01-07T05:47:43.965Z,7.61
2023-01-07T05:52:49.603Z,7.80
2023-01-07T05:57:54.122Z,7.38
2023-01-07T06:02:58.604Z,7.12
2023-01-07T06:08:04.797Z,6.92
2023-01-07T06:13:09.304Z,7.18
2023-01-07T06:18:13.885Z,6.95
2023-01-07T06:23:20.108Z,6.68
2023-01-07T06:28:24.945Z,6.55
2023-01-07T06:33:33.385Z,6.25
2023-01-07T06:38:41.746Z,7.53
2023-01-07T06:43:46.223Z,7.24
2023-01-07T06:48:51.402Z,7.52
2023-01-07T06:54:00.805Z,7.35
2023-01-07T06:59:05.508Z,6.37
2023-01-07T07:04:12.409Z,6.78
2023-01-07T07:09:18.531Z,6.99
2023-01-07T07:14:23.002Z,7.27
2023-01-07T07:19:27.503Z,7.78
2023-01-07T07:24:34.983Z,7.69
2023-01-07T07:29:39.551Z,7.40
2023-01-07T07:34:43.897Z,6.89
2023-01-07T07:39:49.716Z,6.42
2023-01-07T07:44:54.215Z,6.91
2023-01-07T07:49:58.740Z,6.87
2023-01-07T07:55:20.478Z,6.82
2023-01-07T08:00:29.392Z,7.41
2023-01-07T08:05:34.695Z,8.24
2023-01-07T08:10:41.391Z,8.95
2023-01-07T08:15:45.885Z,8.77
2023-01-07T08:20:52.384Z,8.59
2023-01-07T08:26:01.124Z,8.67
2023-01-07T08:31:07.345Z,8.95
2023-01-07T08:36:22.573Z,9.61
2023-01-07T08:41:28.903Z,9.82
2023-01-07T08:46:33.504Z,10.11
2023-01-07T08:51:38.193Z,9.93
2023-01-07T08:56:44.222Z,9.19
2023-01-07T09:01:48.788Z,9.71
2023-01-07T09:06:53.545Z,10.11
2023-01-07T09:11:59.357Z,10.37
2023-01-07T09:17:03.334Z,10.24
2023-01-07T09:22:07.816Z,9.95
2023-01-07T09:27:13.572Z,8.29
2023-01-07T09:32:17.796Z,7.86
2023-01-07T09:37:22.884Z,7.56
2023-01-07T09:42:38.771Z,7.66
2023-01-07T09:47:46.226Z,7.39
2023-01-07T09:52:54.409Z,8.42
2023-01-07T09:58:00.701Z,8.19
2023-01-07T10:03:24.736Z,9.07
2023-01-07T10:08:39.861Z,8.06
2023-01-07T10:13:59.288Z,8.44
2023-01-07T10:19:09.529Z,8.97
2023-01-07T10:24:22.025Z,6.97
2023-01-07T10:29:33.767Z,7.47
2023-01-07T10:34:45.176Z,8.01
2023-01-07T10:39:57.878Z,8.40
2023-01-07T10:45:31.890Z,9.09
2023-01-07T10:50:53.455Z,10.09
2023-01-07T10:56:08.948Z,10.26
2023-01-07T11:01:22.951Z,11.59
2023-01-07T11:06:40.280Z,11.88
2023-01-07T11:11:47.266Z,12.40
2023-01-07T11:16:58.416Z,9.97
2023-01-07T11:22:03.255Z,10.03
2023-01-07T11:27:15.643Z,9.28
2023-01-07T11:32:26.236Z,9.59
2023-01-07T11:37:39.549Z,10.52
2023-01-07T11:42:49.985Z,9.71
2023-01-07T11:48:01.688Z,11.08
2023-01-07T11:53:23.519Z,10.41
2023-01-07T11:58:31.029Z,10.47
2023-01-07T12:03:38.289Z,10.39
2023-01-07T12:08:50.996Z,10.60
2023-01-07T12:13:55.900Z,11.07
2023-01-07T12:19:14.908Z,11.73
2023-01-07T12:25:00.284Z,12.28
2023-01-07T12:30:23.770Z,11.04
2023-01-07T12:35:32.578Z,12.76
2023-01-07T12:40:42.467Z,15.21
2023-01-07T12:45:52.677Z,14.99
2023-01-07T12:51:00.766Z,14.73
2023-01-07T12:56:12.384Z,13.44
2023-01-07T13:01:25.490Z,13.30
2023-01-07T13:06:42.936Z,12.65
2023-01-07T13:12:40.582Z,12.76
2023-01-07T13:17:35.931Z,13.51
2023-01-07T13:22:46.474Z,13.96
2023-01-07T13:28:20.658Z,13.28
2023-01-07T13:33:35.147Z,12.92
2023-01-07T13:39:14.018Z,12.86
2023-01-07T13:44:49.771Z,12.36
2023-01-07T13:50:00.522Z,11.49
2023-01-07T13:55:32.578Z,11.48
2023-01-07T14:01:05.208Z,11.97
2023-01-07T14:06:44.125Z,9.72
2023-01-07T14:12:15.802Z,9.54
2023-01-07T14:17:32.507Z,9.46
2023-01-07T14:22:44.265Z,9.67
2023-01-07T14:28:20.818Z,10.44
2023-01-07T14:33:28.249Z,10.59
2023-01-07T14:39:00.992Z,10.39
2023-01-07T14:44:37.110Z,9.95
2023-01-07T14:50:09.916Z,9.34
2023-01-07T14:55:40.117Z,9.00
2023-01-07T15:01:22.083Z,9.05
2023-01-07T15:06:30.268Z,9.03
2023-01-07T15:11:53.603Z,9.09
2023-01-07T15:16:58.702Z,9.17
2023-01-07T15:22:13.464Z,8.69
2023-01-07T15:27:29.790Z,9.01
2023-01-07T15:32:45.571Z,8.66
2023-01-07T15:37:52.883Z,7.75
2023-01-07T15:42:59.449Z,7.13
2023-01-07T15:48:09.189Z,7.21
2023-01-07T15:53:23.634Z,6.86
2023-01-07T15:58:36.693Z,6.48
2023-01-07T16:03:44.705Z,7.05
2023-01-07T16:08:51.926Z,7.06
2023-01-07T16:13:59.890Z,7.29
2023-01-07T16:19:08.644Z,7.44
2023-01-07T16:24:17.653Z,7.53
2023-01-07T16:29:27.500Z,7.15
2023-01-07T16:34:59.927Z,6.79
2023-01-07T16:40:18.102Z,6.46
2023-01-07T16:45:29.072Z,5.98
2023-01-07T16:50:40.495Z,5.77
2023-01-07T16:55:51.632Z,5.71
2023-01-07T17:01:01.829Z,6.09
2023-01-07T17:06:08.620Z,6.57
2023-01-07T17:11:22.845Z,6.55
2023-01-07T17:16:30.494Z,6.43
2023-01-07T17:21:43.025Z,6.14
2023-01-07T17:26:51.860Z,6.20
2023-01-07T17:31:56.937Z,6.25
2023-01-07T17:37:01.903Z,6.80
2023-01-07T17:42:39.894Z,5.91
2023-01-07T17:48:03.246Z,6.50
2023-01-07T17:53:14.909Z,6.20
2023-01-07T17:58:27.765Z,6.07
2023-01-07T18:03:40.053Z,6.41
2023-01-07T18:08:50.714Z,5.06
2023-01-07T18:14:11.109Z,5.47
2023-01-07T18:19:36.244Z,5.25
2023-01-07T18:25:19.001Z,5.98
2023-01-07T18:30:38.554Z,5.64
2023-01-07T18:35:43.631Z,6.08
2023-01-07T18:40:57.713Z,6.16
2023-01-07T18:46:19.970Z,4.58
2023-01-07T18:51:34.829Z,5.21
2023-01-07T18:57:05.236Z,4.97
2023-01-07T19:02:22.659Z,5.80
2023-01-07T19:08:03.048Z,5.88
2023-01-07T19:13:28.934Z,5.22
2023-01-07T19:19:07.015Z,5.54
2023-01-07T19:24:34.813Z,5.89
2023-01-07T19:29:49.967Z,5.67
2023-01-07T19:35:14.869Z,6.13
2023-01-07T19:40:19.028Z,5.82
2023-01-07T19:45:24.435Z,5.72
2023-01-07T19:50:30.328Z,5.81
2023-01-07T19:55:34.467Z,5.57
2023-01-07T20:00:39.051Z,5.49
2023-01-07T20:05:45.250Z,6.14
2023-01-07T20:10:57.588Z,6.02
2023-01-07T20:16:06.237Z,6.27
2023-01-07T20:21:12.889Z,6.06
2023-01-07T20:26:19.144Z,6.05
2023-01-07T20:31:27.349Z,6.40
2023-01-07T20:36:34.058Z,6.10
2023-01-07T20:41:39.209Z,5.48
2023-01-07T20:46:44.075Z,5.93
2023-01-07T20:51:50.097Z,5.07
2023-01-07T20:56:54.567Z,5.63
2023-01-07T21:01:59.182Z,5.76
2023-01-07T21:07:05.349Z,5.32
2023-01-07T21:12:10.030Z,6.00
2023-01-07T21:17:16.136Z,5.04
2023-01-07T21:22:21.997Z,5.03
2023-01-07T21:27:26.640Z,5.25
2023-01-07T21:32:31.123Z,5.37
2023-01-07T21:37:37.545Z,5.47
2023-01-07T21:42:41.931Z,5.52
2023-01-07T21:47:46.424Z,5.32
2023-01-07T21:52:53.431Z,4.49
2023-01-07T21:57:58.124Z,4.49
2023-01-07T22:03:02.654Z,4.22
2023-01-07T22:08:10.577Z,2.81
2023-01-07T22:13:15.065Z,3.08
2023-01-07T22:18:20.702Z,3.07
2023-01-07T22:23:26.999Z,3.41
2023-01-07T22:28:33.672Z,3.00
2023-01-07T22:33:38.154Z,2.56
2023-01-07T22:38:44.381Z,2.33
2023-01-07T22:44:55.037Z,2.48
2023-01-07T22:50:02.946Z,1.94
2023-01-07T22:55:09.862Z,2.42
2023-01-07T23:00:18.648Z,2.11
2023-01-07T23:05:25.752Z,2.53
2023-01-07T23:10:32.347Z,2.45
2023-01-07T23:15:38.307Z,2.56
2023-01-07T23:20:44.216Z,2.44
2023-01-07T23:25:52.109Z,2.21
2023-01-07T23:30:56.517Z,1.92
2023-01-07T23:36:05.050Z,2.13
2023-01-07T23:41:12.749Z,2.20
2023-01-07T23:46:18.228Z,2.37
2023-01-07T23:51:23.111Z,2.50
2023-01-07T23:56:30.162Z,2.44
